Green Level, North Carolina
Current Conditions -  °F | °C
As of 5:54 AM on Thursday 18 Dec 2014 (Local Time) from KBUY Reporting Station
Clear Clear  
Wind Chill: 31°   Ceiling: Unl
Heat Index: 38°   Visibility: 10mi
Dew Point: 23°   Wind: 9mph
Humidity: 55%   Direction: 350°N
Pressure: 30.14"   Gusts: NA
Location:  36.2012°N, 79.3807°W
Report Text: KBUY 181054Z AUTO 35008KT 10SM CLR 03/M05 A3014 RMK AO2 SLP206 T00331050
Loading
Personal Weather Stations






























Interactive Weather Map New forecast layout! Learn more

10-Day Weather Forecast

Advertisements
Track Severe Weather on mobile